Papalote, Texas
Current Conditions -  °F | °C
As of 4:51 AM on Tuesday 21 Oct 2014 (Local Time) from KCRP Reporting Station
Few Clouds Few Clouds  
Wind Chill: 72°   Ceiling: Unl
Heat Index: 72°   Visibility: 10mi
Dew Point: 68°   Wind: 9mph
Humidity: 87%   Direction: 50°NE
Pressure: 29.95"   Gusts: NA
Location:  28.0577°N, 97.5365°W
Report Text: KCRP 210951Z 05008KT 10SM FEW020 FEW250 22/20 A2995 RMK AO2 SLP140 T02220200
Loading
Personal Weather Stations






























Interactive Weather Map
Tropical Storm Tracking
New forecast layout! Learn more

10-Day Weather Forecast

Advertisements
Track Severe Weather on mobile